createdAt,value
2023-04-23T19:51:20.555Z,94.55
2023-04-23T19:53:51.312Z,94.72
2023-04-23T19:56:23.332Z,95.21
2023-04-23T19:58:50.893Z,94.99
2023-04-23T20:01:17.997Z,94.73
2023-04-23T20:03:51.869Z,94.80
2023-04-23T20:06:21.074Z,94.73
2023-04-23T20:09:21.270Z,94.70
2023-04-23T20:11:48.854Z,94.59
2023-04-23T20:14:34.870Z,94.71
2023-04-23T20:17:01.508Z,94.71
2023-04-23T20:19:28.007Z,94.93
2023-04-23T20:21:54.577Z,94.86
2023-04-23T20:24:23.820Z,94.87
2023-04-23T20:26:50.173Z,94.55
2023-04-23T20:29:16.845Z,94.69
2023-04-23T20:31:43.644Z,94.57
2023-04-23T20:34:10.995Z,93.66
2023-04-23T20:36:38.866Z,93.65
2023-04-23T20:39:05.277Z,93.79
2023-04-23T20:41:36.417Z,93.37
2023-04-23T20:44:04.932Z,93.59
2023-04-23T20:46:32.510Z,94.15
2023-04-23T20:49:00.895Z,94.18
2023-04-23T20:54:02.902Z,94.31
2023-04-23T20:56:29.777Z,94.24
2023-04-23T20:58:57.724Z,94.32
2023-04-23T21:01:25.319Z,93.96
2023-04-23T21:03:53.382Z,93.99
2023-04-23T21:06:23.266Z,94.03
2023-04-23T21:08:49.841Z,94.56
2023-04-23T21:11:18.116Z,94.57
2023-04-23T21:13:45.468Z,94.59
2023-04-23T21:16:14.304Z,94.60
2023-04-23T21:18:41.292Z,94.61
2023-04-23T21:21:08.227Z,94.55
2023-04-23T21:23:36.825Z,94.44
2023-04-23T21:26:03.597Z,94.02
2023-04-23T21:28:32.154Z,93.89
2023-04-23T21:31:05.992Z,93.68
2023-04-23T21:33:56.564Z,93.52
2023-04-23T21:36:28.444Z,93.58
2023-04-23T21:38:54.997Z,92.92
2023-04-23T21:41:21.490Z,93.25
2023-04-23T21:43:47.919Z,92.86
2023-04-23T21:46:14.436Z,93.20
2023-04-23T21:48:40.797Z,93.63
2023-04-23T21:51:07.790Z,93.34
2023-04-23T21:53:34.345Z,92.76
2023-04-23T21:56:00.868Z,93.36
2023-04-23T21:58:27.821Z,93.34
2023-04-23T22:00:54.548Z,93.20
2023-04-23T22:03:37.417Z,93.74
2023-04-23T22:06:05.552Z,94.27
2023-04-23T22:08:33.893Z,94.22
2023-04-23T22:11:00.462Z,94.12
2023-04-23T22:13:26.828Z,94.21
2023-04-23T22:16:26.889Z,94.05
2023-04-23T22:18:54.723Z,94.26
2023-04-23T22:21:21.083Z,94.60
2023-04-23T22:23:47.448Z,94.35
2023-04-23T22:26:21.631Z,94.47
2023-04-23T22:28:48.140Z,94.55
2023-04-23T22:31:14.519Z,94.57
2023-04-23T22:33:42.910Z,94.76
2023-04-23T22:36:14.389Z,95.02
2023-04-23T22:38:40.853Z,94.83
2023-04-23T22:41:09.347Z,95.29
2023-04-23T22:43:35.812Z,95.20
2023-04-23T22:46:04.344Z,95.13
2023-04-23T22:48:37.772Z,95.34
2023-04-23T22:51:15.436Z,95.32
2023-04-23T22:53:43.911Z,95.67
2023-04-23T22:56:21.680Z,95.36
2023-04-23T22:58:48.102Z,95.37
2023-04-23T23:01:14.591Z,95.44
2023-04-23T23:03:42.313Z,95.14
2023-04-23T23:06:08.799Z,95.42
2023-04-23T23:08:35.180Z,95.03
2023-04-23T23:11:01.689Z,94.85
2023-04-23T23:13:29.045Z,94.50
2023-04-23T23:15:55.736Z,94.78
2023-04-23T23:18:22.128Z,95.62
2023-04-23T23:20:48.589Z,95.31
2023-04-23T23:23:14.994Z,95.27
2023-04-23T23:25:44.492Z,94.79
2023-04-23T23:28:20.154Z,95.05
2023-04-23T23:30:47.942Z,94.81
2023-04-23T23:33:14.610Z,94.89
2023-04-23T23:35:42.616Z,95.35
2023-04-23T23:38:10.702Z,95.04
2023-04-23T23:40:44.180Z,94.91
2023-04-23T23:43:10.928Z,95.23
2023-04-23T23:45:37.401Z,94.69
2023-04-23T23:48:14.895Z,94.63
2023-04-23T23:50:41.393Z,95.19
2023-04-23T23:53:09.866Z,94.86
2023-04-23T23:55:38.537Z,95.12
2023-04-23T23:58:04.962Z,95.16
